Aviation Digital Data Service (ADDS)

Output produced by METARs form (0512 UTC 20 October 2017)
found at http://aviationweather.gov/adds/metars/
 
KCAK 192335Z 2000/2024 25006KT P6SM SCT250 
     FM200600 VRB03KT P6SM SKC 
     FM201700 17006KT P6SM SKC